Time;durP1;ratioP1;P1;durP2;ratioP2;P2;SDS_P1;SDS_P2;PMS_P1;PMS_P2;Temp;Humidity;BMP_temperature;BMP_pressure;BME280_temperature;BME280_humidity;BME280_pressure;Samples;Min_cycle;Max_cycle;Signal;HPM_P1;HPM_P2
2023/04/23 00:00:35;;;;;;;10.93;8.23;;;9.80;99.90;;;;;;5036801;28;20204;-46
2023/04/23 00:03:09;;;;;;;9.43;7.93;;;9.80;99.90;;;;;;5036989;28;20232;-46
2023/04/23 00:05:36;;;;;;;12.27;8.43;;;9.80;99.90;;;;;;5037529;28;20614;-46
2023/04/23 00:08:02;;;;;;;10.40;8.47;;;9.70;99.90;;;;;;5036257;28;20543;-46
2023/04/23 00:10:28;;;;;;;11.63;8.60;;;9.70;99.90;;;;;;5036457;28;20319;-48
2023/04/23 00:12:54;;;;;;;9.20;7.73;;;9.70;99.90;;;;;;5036128;28;20737;-49
2023/04/23 00:15:21;;;;;;;10.23;8.77;;;9.70;99.90;;;;;;5035987;28;20283;-46
2023/04/23 00:17:47;;;;;;;11.23;8.30;;;9.60;99.90;;;;;;5036282;28;20216;-46
2023/04/23 00:20:13;;;;;;;11.20;8.43;;;9.60;99.90;;;;;;5036294;28;20185;-46
2023/04/23 00:22:39;;;;;;;10.60;7.33;;;9.60;99.90;;;;;;5036147;28;20204;-45
2023/04/23 00:25:05;;;;;;;11.30;8.90;;;9.50;99.90;;;;;;5036248;28;20185;-48
2023/04/23 00:27:31;;;;;;;10.80;8.60;;;9.50;99.90;;;;;;5035917;28;20180;-49
2023/04/23 00:29:56;;;;;;;11.47;8.20;;;9.40;99.90;;;;;;5035796;28;20191;-49
2023/04/23 00:32:22;;;;;;;12.17;8.63;;;9.40;99.90;;;;;;5035704;28;20669;-50
2023/04/23 00:34:48;;;;;;;10.67;8.10;;;9.40;99.90;;;;;;5036074;28;20223;-48
2023/04/23 00:37:13;;;;;;;9.97;8.03;;;9.40;99.90;;;;;;5035567;28;20315;-49
2023/04/23 00:39:39;;;;;;;10.93;8.30;;;9.30;99.90;;;;;;5036238;28;20176;-50
2023/04/23 00:42:11;;;;;;;9.33;7.73;;;9.30;99.90;;;;;;5035652;28;20208;-47
2023/04/23 00:44:37;;;;;;;12.50;9.57;;;9.30;99.90;;;;;;5035892;28;20169;-50
2023/04/23 00:47:04;;;;;;;12.33;9.07;;;9.30;99.90;;;;;;5035768;28;20239;-49
2023/04/23 00:49:30;;;;;;;14.63;10.20;;;9.20;99.90;;;;;;5035448;28;20204;-49
2023/04/23 00:51:56;;;;;;;14.97;8.53;;;9.20;99.90;;;;;;5035625;28;20254;-49
2023/04/23 00:54:21;;;;;;;14.17;10.23;;;9.20;99.90;;;;;;5036058;28;20188;-49
2023/04/23 00:56:48;;;;;;;14.83;10.57;;;9.20;99.90;;;;;;5035583;28;20267;-51
2023/04/23 00:59:14;;;;;;;11.67;10.03;;;9.20;99.90;;;;;;5035381;28;20185;-48
2023/04/23 01:01:40;;;;;;;12.70;9.63;;;9.20;99.90;;;;;;5035431;28;20209;-48
2023/04/23 01:04:08;;;;;;;13.43;9.77;;;9.10;99.90;;;;;;5035285;28;20519;-48
2023/04/23 01:06:34;;;;;;;13.47;10.50;;;9.10;99.90;;;;;;5034503;28;20238;-48
2023/04/23 01:09:00;;;;;;;12.40;10.10;;;9.10;99.90;;;;;;5017324;28;20210;-50
2023/04/23 01:11:26;;;;;;;14.33;11.10;;;9.10;99.90;;;;;;5035240;28;20267;-48
2023/04/23 01:13:52;;;;;;;14.00;10.23;;;9.00;99.90;;;;;;5035017;28;20208;-49
2023/04/23 01:16:17;;;;;;;15.80;11.70;;;9.00;99.90;;;;;;5034993;28;20223;-48
2023/04/23 01:18:43;;;;;;;16.83;10.70;;;8.90;99.90;;;;;;5034853;28;20215;-50
2023/04/23 01:21:13;;;;;;;15.37;10.83;;;8.90;99.90;;;;;;5035149;28;20242;-49
2023/04/23 01:23:39;;;;;;;17.40;10.67;;;8.80;99.90;;;;;;5034739;28;20570;-49
2023/04/23 01:26:05;;;;;;;15.40;10.47;;;8.80;99.90;;;;;;5035021;28;20176;-49
2023/04/23 01:28:31;;;;;;;14.23;10.23;;;8.70;99.90;;;;;;5035007;28;20254;-49
2023/04/23 01:30:57;;;;;;;12.40;10.03;;;8.70;99.90;;;;;;5034645;28;20196;-50
2023/04/23 01:33:25;;;;;;;14.10;10.77;;;8.60;99.90;;;;;;5034525;28;20672;-50
2023/04/23 01:35:51;;;;;;;12.53;10.43;;;8.60;99.90;;;;;;5034860;28;20188;-49
2023/04/23 01:38:17;;;;;;;13.80;10.07;;;8.50;99.90;;;;;;5016708;28;20285;-49
2023/04/23 01:40:43;;;;;;;14.33;10.83;;;8.50;99.90;;;;;;5035053;28;20565;-48
2023/04/23 01:43:09;;;;;;;13.67;10.13;;;8.40;99.90;;;;;;5034367;28;20282;-49
2023/04/23 01:45:35;;;;;;;15.50;9.80;;;8.40;99.90;;;;;;5034386;28;20169;-50
2023/04/23 01:48:01;;;;;;;14.87;10.67;;;8.30;99.90;;;;;;5034659;28;20215;-49
2023/04/23 01:50:28;;;;;;;14.00;11.07;;;8.30;99.90;;;;;;5034367;28;20202;-52
2023/04/23 01:52:54;;;;;;;14.93;11.17;;;8.20;99.90;;;;;;5034320;28;20196;-50
2023/04/23 01:55:20;;;;;;;17.47;11.67;;;8.20;99.90;;;;;;5034502;28;20221;-49
2023/04/23 01:57:46;;;;;;;16.57;12.03;;;8.20;99.90;;;;;;5034373;28;20248;-50
2023/04/23 02:00:13;;;;;;;16.47;11.10;;;8.20;99.90;;;;;;5034163;28;20580;-52
2023/04/23 02:02:41;;;;;;;16.37;12.10;;;8.20;99.90;;;;;;5016328;28;20210;-50
2023/04/23 02:05:11;;;;;;;15.53;11.30;;;8.20;99.90;;;;;;5034366;28;20199;-49
2023/04/23 02:07:37;;;;;;;15.70;11.57;;;8.30;99.90;;;;;;5034067;28;20183;-51
2023/04/23 02:10:03;;;;;;;15.77;12.43;;;8.30;99.90;;;;;;5034238;28;20588;-51
2023/04/23 02:12:29;;;;;;;17.33;11.63;;;8.30;99.90;;;;;;5034618;28;20232;-49
2023/04/23 02:14:54;;;;;;;16.93;12.37;;;8.40;99.90;;;;;;5034156;28;20188;-51
2023/04/23 02:17:21;;;;;;;14.83;11.30;;;8.40;99.90;;;;;;5033475;28;20545;-49
2023/04/23 02:19:47;;;;;;;13.37;11.03;;;8.40;99.90;;;;;;5034041;28;20183;-49
2023/04/23 02:22:14;;;;;;;16.60;11.70;;;8.50;99.90;;;;;;5033732;28;20206;-49
2023/04/23 02:24:40;;;;;;;15.73;11.67;;;8.50;99.90;;;;;;5034291;28;20180;-49
2023/04/23 02:27:06;;;;;;;15.57;12.00;;;8.60;99.90;;;;;;5033721;28;20184;-51
2023/04/23 02:29:32;;;;;;;13.67;11.03;;;8.60;99.90;;;;;;5033828;28;20190;-49
2023/04/23 02:31:58;;;;;;;15.13;12.13;;;8.60;99.90;;;;;;5034070;28;20284;-49
2023/04/23 02:34:23;;;;;;;15.67;11.97;;;8.60;99.90;;;;;;5033878;28;20186;-51
2023/04/23 02:36:49;;;;;;;14.13;10.80;;;8.60;99.90;;;;;;5033824;28;20187;-51
2023/04/23 02:39:15;;;;;;;15.60;11.60;;;8.70;99.90;;;;;;5016139;28;20583;-48
2023/04/23 02:41:41;;;;;;;15.87;11.70;;;8.70;99.90;;;;;;5034025;28;20252;-52
2023/04/23 02:44:06;;;;;;;16.23;10.77;;;8.70;99.90;;;;;;5033651;28;20216;-49
2023/04/23 02:46:32;;;;;;;14.97;11.30;;;8.70;99.90;;;;;;5033619;28;20177;-50
2023/04/23 02:48:58;;;;;;;15.43;11.60;;;8.70;99.90;;;;;;5033276;28;20200;-50
2023/04/23 02:51:23;;;;;;;17.10;11.53;;;8.80;99.90;;;;;;5033202;28;20318;-50
2023/04/23 02:53:49;;;;;;;14.73;10.40;;;8.80;99.90;;;;;;5033301;28;20186;-51
2023/04/23 02:56:14;;;;;;;17.07;11.30;;;8.80;99.90;;;;;;5033553;28;20180;-49
2023/04/23 02:58:40;;;;;;;16.10;10.97;;;8.80;99.90;;;;;;5033179;28;20207;-49
2023/04/23 03:01:06;;;;;;;20.33;11.17;;;8.80;99.90;;;;;;5033756;28;20184;-52
2023/04/23 03:03:32;;;;;;;19.00;11.17;;;8.80;99.90;;;;;;5033265;28;20211;-52
2023/04/23 03:05:59;;;;;;;14.90;10.23;;;8.90;99.90;;;;;;5033575;28;20177;-49
2023/04/23 03:08:25;;;;;;;16.00;11.50;;;8.90;99.90;;;;;;5015704;28;20216;-49
2023/04/23 03:10:50;;;;;;;15.73;10.33;;;8.90;99.90;;;;;;5033404;28;20274;-52
2023/04/23 03:13:16;;;;;;;16.23;11.97;;;8.90;99.90;;;;;;5033460;28;20205;-50
2023/04/23 03:15:41;;;;;;;18.03;11.77;;;8.90;99.90;;;;;;5033343;28;20180;-51
2023/04/23 03:18:07;;;;;;;15.87;10.90;;;8.90;99.90;;;;;;5033391;28;20683;-50
2023/04/23 03:20:34;;;;;;;18.83;11.83;;;8.90;99.90;;;;;;5033609;28;20172;-51
2023/04/23 03:23:00;;;;;;;17.77;11.03;;;8.80;99.90;;;;;;5033494;28;20684;-50
2023/04/23 03:25:26;;;;;;;16.17;9.83;;;8.80;99.90;;;;;;5033471;28;20177;-49
2023/04/23 03:27:52;;;;;;;10.97;9.23;;;8.80;99.90;;;;;;5033530;28;20187;-51
2023/04/23 03:30:17;;;;;;;14.77;9.90;;;8.70;99.90;;;;;;5019487;28;20195;-50
2023/04/23 03:32:43;;;;;;;11.60;9.40;;;8.80;99.90;;;;;;5037074;28;20559;-50
2023/04/23 03:35:09;;;;;;;11.50;8.77;;;8.70;99.90;;;;;;5037167;28;20307;-51
2023/04/23 03:37:34;;;;;;;12.13;8.77;;;8.70;99.90;;;;;;5036780;28;20206;-50
2023/04/23 03:40:05;;;;;;;9.90;8.33;;;8.70;99.90;;;;;;5037318;28;20194;-51
2023/04/23 03:42:31;;;;;;;13.13;8.63;;;8.70;99.90;;;;;;5036964;28;20229;-51
2023/04/23 03:44:56;;;;;;;10.03;8.47;;;8.70;99.90;;;;;;5037203;28;20237;-52
2023/04/23 03:47:22;;;;;;;11.00;8.70;;;8.80;99.90;;;;;;5036942;28;20173;-52
2023/04/23 03:49:47;;;;;;;12.93;9.00;;;8.80;99.90;;;;;;5036875;28;20613;-50
2023/04/23 03:52:13;;;;;;;15.30;9.13;;;8.80;99.90;;;;;;5036798;28;20206;-50
2023/04/23 03:54:39;;;;;;;12.63;8.63;;;8.80;99.90;;;;;;5036460;28;20185;-52
2023/04/23 03:57:04;;;;;;;12.23;9.17;;;8.80;99.90;;;;;;5036620;28;20205;-50
2023/04/23 03:59:30;;;;;;;10.00;8.43;;;8.80;99.90;;;;;;5036418;28;20173;-51
2023/04/23 04:01:56;;;;;;;11.43;7.73;;;8.80;99.90;;;;;;5036547;28;20203;-50
2023/04/23 04:04:22;;;;;;;9.87;8.00;;;8.80;99.90;;;;;;5035460;28;20184;-50
2023/04/23 04:06:48;;;;;;;11.10;8.60;;;8.80;99.90;;;;;;5036283;28;20185;-50
2023/04/23 04:09:13;;;;;;;10.97;8.73;;;8.80;99.90;;;;;;5036286;28;20239;-51
2023/04/23 04:11:39;;;;;;;14.37;8.57;;;8.80;99.90;;;;;;5036130;28;20659;-51
2023/04/23 04:14:05;;;;;;;10.47;8.07;;;8.80;99.90;;;;;;5036417;28;20236;-50
2023/04/23 04:16:31;;;;;;;11.63;8.70;;;8.90;99.90;;;;;;5036090;28;20184;-52
2023/04/23 04:18:56;;;;;;;10.37;8.57;;;8.90;99.90;;;;;;5035949;28;20215;-50
2023/04/23 04:21:22;;;;;;;9.53;7.93;;;8.90;99.90;;;;;;5035955;28;20256;-50
2023/04/23 04:23:47;;;;;;;12.80;8.67;;;8.90;99.90;;;;;;5036188;28;20230;-51
2023/04/23 04:26:14;;;;;;;11.83;8.50;;;8.90;99.90;;;;;;5036258;28;20641;-50
2023/04/23 04:28:39;;;;;;;10.50;7.87;;;8.90;99.90;;;;;;5035891;28;20548;-51
2023/04/23 04:31:05;;;;;;;12.40;8.90;;;9.00;99.90;;;;;;5036075;28;20191;-50
2023/04/23 04:33:32;;;;;;;12.63;9.00;;;9.00;99.90;;;;;;5035759;28;20276;-50
2023/04/23 04:35:59;;;;;;;12.10;8.63;;;9.00;99.90;;;;;;5036007;28;20185;-52
2023/04/23 04:38:25;;;;;;;10.73;8.10;;;9.00;99.90;;;;;;5035947;28;20209;-52
2023/04/23 04:40:54;;;;;;;8.97;7.30;;;9.00;99.90;;;;;;5034703;28;20260;-52
2023/04/23 04:43:19;;;;;;;11.63;8.80;;;9.10;99.90;;;;;;5035803;28;20200;-50
2023/04/23 04:45:45;;;;;;;10.53;8.60;;;9.10;99.90;;;;;;5035597;28;20175;-52
2023/04/23 04:48:10;;;;;;;9.57;8.03;;;9.10;99.90;;;;;;5035427;28;20249;-50
2023/04/23 04:50:36;;;;;;;9.03;7.93;;;9.20;99.90;;;;;;5035717;28;20386;-51
2023/04/23 04:53:02;;;;;;;9.03;7.80;;;9.20;99.90;;;;;;5035378;28;20207;-51
2023/04/23 04:55:27;;;;;;;10.43;7.90;;;9.20;99.90;;;;;;5035767;28;20193;-53
2023/04/23 04:57:53;;;;;;;9.07;7.50;;;9.20;99.90;;;;;;5035232;28;20206;-51
2023/04/23 05:00:25;;;;;;;10.10;7.30;;;9.20;99.90;;;;;;5035581;28;20176;-49
2023/04/23 05:02:51;;;;;;;10.73;8.33;;;9.20;99.90;;;;;;5035493;28;20210;-50
2023/04/23 05:05:17;;;;;;;10.07;7.73;;;9.30;99.90;;;;;;5035245;28;20174;-50
2023/04/23 05:07:43;;;;;;;10.07;8.13;;;9.30;99.90;;;;;;5035661;28;20237;-51
2023/04/23 05:10:09;;;;;;;10.47;8.17;;;9.30;99.90;;;;;;5035053;28;20181;-52
2023/04/23 05:12:36;;;;;;;10.13;8.07;;;9.30;99.90;;;;;;5035140;28;20189;-49
2023/04/23 05:15:03;;;;;;;9.93;7.87;;;9.40;99.90;;;;;;5035057;28;20533;-51
2023/04/23 05:17:28;;;;;;;12.37;8.07;;;9.40;99.90;;;;;;5034888;28;20202;-50
2023/04/23 05:19:54;;;;;;;9.20;7.43;;;9.40;99.90;;;;;;5034925;28;20290;-51
2023/04/23 05:22:20;;;;;;;10.57;7.60;;;9.50;99.90;;;;;;5034830;28;20199;-51
2023/04/23 05:24:45;;;;;;;8.13;7.03;;;9.50;99.90;;;;;;5035080;28;20177;-52
2023/04/23 05:27:11;;;;;;;9.60;6.90;;;9.50;99.90;;;;;;5034762;28;20183;-50
2023/04/23 05:29:36;;;;;;;8.67;7.10;;;9.60;99.90;;;;;;5017769;28;20284;-50
2023/04/23 05:32:02;;;;;;;8.93;7.20;;;9.70;99.90;;;;;;5034869;28;20203;-50
2023/04/23 05:34:28;;;;;;;9.17;7.00;;;9.80;99.90;;;;;;5034617;28;20200;-51
2023/04/23 05:36:53;;;;;;;14.27;6.83;;;9.80;99.90;;;;;;5034760;28;20176;-48
2023/04/23 05:39:19;;;;;;;8.53;7.17;;;9.80;99.90;;;;;;5034800;28;20644;-50
2023/04/23 05:41:44;;;;;;;9.27;6.90;;;9.90;99.90;;;;;;5034423;28;20561;-50
2023/04/23 05:44:10;;;;;;;8.73;6.87;;;10.00;99.90;;;;;;5034710;28;20200;-49
2023/04/23 05:46:36;;;;;;;12.07;7.80;;;10.00;99.90;;;;;;5034376;28;20180;-50
2023/04/23 05:49:01;;;;;;;8.67;6.50;;;10.10;99.90;;;;;;5034261;28;20201;-50
2023/04/23 05:51:27;;;;;;;10.93;7.37;;;10.20;99.90;;;;;;5034038;28;20227;-50
2023/04/23 05:53:52;;;;;;;9.30;7.33;;;10.30;99.90;;;;;;5034282;28;20224;-50
2023/04/23 05:56:18;;;;;;;9.23;7.53;;;10.30;99.90;;;;;;5034213;28;20217;-51
2023/04/23 05:58:43;;;;;;;7.40;6.20;;;10.40;99.90;;;;;;5034499;28;20208;-52
2023/04/23 06:01:09;;;;;;;10.13;6.80;;;10.50;99.90;;;;;;5034080;28;20181;-53
2023/04/23 06:03:36;;;;;;;8.33;6.27;;;10.60;99.90;;;;;;5034020;28;20192;-52
2023/04/23 06:06:01;;;;;;;9.50;6.97;;;10.70;99.90;;;;;;5033975;28;20242;-51
2023/04/23 06:08:27;;;;;;;7.90;6.73;;;10.80;99.90;;;;;;5016320;28;20180;-49
2023/04/23 06:10:54;;;;;;;11.10;7.20;;;10.80;99.90;;;;;;5033940;28;20184;-49
2023/04/23 06:13:20;;;;;;;9.80;7.07;;;11.00;99.90;;;;;;5034511;28;20226;-50
2023/04/23 06:15:46;;;;;;;7.93;6.77;;;11.00;99.90;;;;;;5033891;28;20169;-50
2023/04/23 06:18:12;;;;;;;8.63;7.40;;;11.10;99.90;;;;;;5033799;28;20255;-50
2023/04/23 06:20:37;;;;;;;10.53;7.23;;;11.20;99.90;;;;;;5034036;28;20187;-52
2023/04/23 06:23:03;;;;;;;10.07;6.40;;;11.30;99.90;;;;;;5033612;28;20208;-50
2023/04/23 06:25:28;;;;;;;10.90;6.30;;;11.40;99.90;;;;;;5033737;28;20186;-50
2023/04/23 06:27:56;;;;;;;10.63;6.63;;;11.40;99.90;;;;;;5033933;28;20694;-52
2023/04/23 06:30:22;;;;;;;9.83;5.93;;;11.50;99.90;;;;;;5033583;28;20192;-51
2023/04/23 06:32:48;;;;;;;8.33;6.37;;;11.60;99.90;;;;;;5033844;28;20208;-51
2023/04/23 06:35:14;;;;;;;9.90;6.50;;;11.60;99.90;;;;;;5033539;28;20222;-53
2023/04/23 06:37:39;;;;;;;8.27;6.00;;;11.70;99.90;;;;;;5033437;28;20201;-52
2023/04/23 06:40:06;;;;;;;7.03;5.80;;;11.70;99.90;;;;;;5033516;28;20695;-50
2023/04/23 06:42:31;;;;;;;8.80;6.17;;;11.80;99.90;;;;;;5033608;28;20231;-50
2023/04/23 06:44:58;;;;;;;6.90;5.77;;;11.80;99.90;;;;;;5033436;28;20219;-50
2023/04/23 06:47:24;;;;;;;6.50;5.80;;;11.80;99.90;;;;;;5033581;28;20208;-50
2023/04/23 06:49:49;;;;;;;8.20;5.43;;;11.90;99.90;;;;;;5033642;28;20661;-50
2023/04/23 06:52:15;;;;;;;7.23;5.30;;;11.90;99.90;;;;;;5033557;28;20211;-50
2023/04/23 06:54:40;;;;;;;7.23;5.17;;;12.00;99.90;;;;;;5033285;28;20260;-50
2023/04/23 06:57:06;;;;;;;8.50;5.37;;;12.00;99.90;;;;;;5033551;28;20191;-51
2023/04/23 06:59:32;;;;;;;5.57;4.93;;;12.10;99.90;;;;;;5016415;28;20193;-51
2023/04/23 07:01:57;;;;;;;5.87;4.93;;;12.20;99.90;;;;;;5033198;28;20242;-50
2023/04/23 07:04:23;;;;;;;6.20;4.80;;;12.20;99.90;;;;;;5032686;28;20641;-52
2023/04/23 07:06:48;;;;;;;5.70;4.63;;;12.30;99.90;;;;;;5033861;28;20184;-51
2023/04/23 07:09:14;;;;;;;6.70;5.30;;;12.60;99.90;;;;;;5033262;28;20721;-51
2023/04/23 07:11:39;;;;;;;6.47;4.77;;;12.90;99.90;;;;;;5033202;28;20189;-51
2023/04/23 07:14:05;;;;;;;9.00;5.43;;;13.30;99.90;;;;;;5033145;28;20241;-51
2023/04/23 07:16:32;;;;;;;10.67;4.77;;;13.60;99.90;;;;;;5033433;28;20650;-52
2023/04/23 07:19:00;;;;;;;6.17;4.73;;;14.00;99.90;;;;;;5033268;28;20216;-52
2023/04/23 07:21:27;;;;;;;7.90;4.17;;;14.30;99.90;;;;;;5033321;28;20191;-51
2023/04/23 07:23:58;;;;;;;8.27;4.77;;;14.40;99.90;;;;;;5033030;28;20168;-52
2023/04/23 07:26:26;;;;;;;4.73;4.23;;;14.50;99.90;;;;;;5033316;28;20161;-49
2023/04/23 07:28:51;;;;;;;10.87;4.47;;;14.70;99.90;;;;;;5032953;28;20180;-50
2023/04/23 07:31:18;;;;;;;5.93;4.30;;;15.00;99.90;;;;;;5033338;28;20235;-50
2023/04/23 07:33:44;;;;;;;7.70;4.00;;;15.20;99.90;;;;;;5033445;28;20671;-50
2023/04/23 07:36:10;;;;;;;4.90;3.43;;;15.40;99.90;;;;;;5033454;28;20173;-50
2023/04/23 07:38:35;;;;;;;6.83;4.10;;;15.60;99.90;;;;;;5015121;28;20289;-52
2023/04/23 07:41:01;;;;;;;5.50;3.60;;;15.80;99.90;;;;;;5033096;28;20173;-51
2023/04/23 07:43:26;;;;;;;5.77;3.00;;;15.90;99.90;;;;;;5032831;28;20259;-51
2023/04/23 07:45:52;;;;;;;5.33;3.50;;;16.00;99.90;;;;;;5032871;28;20535;-53
2023/04/23 07:48:18;;;;;;;5.17;3.17;;;16.10;99.90;;;;;;5032706;28;20203;-51
2023/04/23 07:50:43;;;;;;;4.67;2.70;;;16.10;99.90;;;;;;5032874;28;20226;-46
2023/04/23 07:53:09;;;;;;;6.13;2.77;;;16.30;99.90;;;;;;5033063;28;20204;-48
2023/04/23 07:55:34;;;;;;;6.70;3.20;;;16.40;99.90;;;;;;5032802;28;20173;-47
2023/04/23 07:58:00;;;;;;;5.23;2.60;;;16.60;99.90;;;;;;5033014;28;20239;-47
2023/04/23 08:00:26;;;;;;;6.53;2.47;;;16.70;99.90;;;;;;5032794;28;20687;-47
2023/04/23 08:02:52;;;;;;;6.57;2.57;;;16.70;99.90;;;;;;5032729;28;20196;-47
2023/04/23 08:05:18;;;;;;;4.40;2.00;;;16.80;99.90;;;;;;5032999;28;20236;-48
2023/04/23 08:07:43;;;;;;;4.00;2.17;;;16.90;99.90;;;;;;5032980;28;20173;-47
2023/04/23 08:10:09;;;;;;;6.60;2.43;;;16.90;99.90;;;;;;5032621;28;20179;-46
2023/04/23 08:12:35;;;;;;;4.80;2.47;;;17.00;99.90;;;;;;5032895;28;20200;-47
2023/04/23 08:15:01;;;;;;;3.50;1.90;;;17.20;99.90;;;;;;5033203;28;20177;-48
2023/04/23 08:17:27;;;;;;;4.07;2.50;;;17.30;99.90;;;;;;5039733;28;20609;-48
2023/04/23 08:19:53;;;;;;;5.17;2.47;;;17.30;99.90;;;;;;5036792;28;20302;-48
2023/04/23 08:22:18;;;;;;;3.73;2.10;;;17.40;99.90;;;;;;5037321;28;20223;-50
2023/04/23 08:24:45;;;;;;;4.87;1.80;;;17.50;99.90;;;;;;5037744;28;20664;-48
2023/04/23 08:27:11;;;;;;;3.17;1.77;;;17.50;99.90;;;;;;5038598;28;20714;-48
2023/04/23 08:29:36;;;;;;;3.50;1.77;;;17.70;99.90;;;;;;5037542;28;20189;-48
2023/04/23 08:32:02;;;;;;;7.83;2.50;;;17.80;99.90;;;;;;5036549;28;20204;-49
2023/04/23 08:34:28;;;;;;;4.67;1.90;;;17.90;99.90;;;;;;5035873;28;20645;-48
2023/04/23 08:36:53;;;;;;;6.07;1.63;;;18.00;99.90;;;;;;5017926;28;20181;-48
2023/04/23 08:39:19;;;;;;;5.17;2.13;;;18.10;99.90;;;;;;5035713;28;20161;-49
2023/04/23 08:41:53;;;;;;;8.00;1.60;;;18.10;99.90;;;;;;5035611;28;20189;-48
2023/04/23 08:44:22;;;;;;;5.83;1.33;;;18.10;99.90;;;;;;5035853;28;20299;-47
2023/04/23 08:46:48;;;;;;;5.07;1.80;;;18.30;99.90;;;;;;5035682;28;20177;-49
2023/04/23 08:49:16;;;;;;;8.83;1.87;;;18.40;99.90;;;;;;5035536;28;20197;-48
2023/04/23 08:51:52;;;;;;;4.63;1.53;;;18.50;99.90;;;;;;5035424;28;20268;-50
2023/04/23 08:54:27;;;;;;;5.03;1.40;;;18.60;99.90;;;;;;5035682;28;20633;-48
2023/04/23 08:56:57;;;;;;;2.73;1.60;;;18.70;99.90;;;;;;5017622;28;20602;-49
2023/04/23 08:59:25;;;;;;;6.00;1.27;;;18.80;99.90;;;;;;5035608;28;20173;-48
2023/04/23 09:01:52;;;;;;;3.90;1.67;;;18.90;99.90;;;;;;5035204;28;20200;-48
2023/04/23 09:04:19;;;;;;;3.90;1.10;;;19.00;99.90;;;;;;5035165;28;20625;-49
2023/04/23 09:06:45;;;;;;;5.53;1.27;;;19.10;99.90;;;;;;5035459;28;20189;-48
2023/04/23 09:09:14;;;;;;;3.70;1.53;;;19.10;99.90;;;;;;5035179;28;20588;-49
2023/04/23 09:11:40;;;;;;;4.20;1.57;;;19.20;99.90;;;;;;5035757;28;20255;-48
2023/04/23 09:14:07;;;;;;;3.27;1.20;;;19.20;99.90;;;;;;5035356;28;20185;-48
2023/04/23 09:16:33;;;;;;;3.80;1.37;;;19.20;99.90;;;;;;5035082;28;20188;-48
2023/04/23 09:18:58;;;;;;;5.10;1.10;;;19.20;99.90;;;;;;5034863;28;20208;-48
2023/04/23 09:21:24;;;;;;;4.23;1.20;;;19.10;99.90;;;;;;5035030;28;20185;-49
2023/04/23 09:23:53;;;;;;;3.00;1.47;;;19.10;99.90;;;;;;5035081;28;20213;-48
2023/04/23 09:26:21;;;;;;;7.53;1.27;;;19.10;99.90;;;;;;5034320;28;20259;-48
2023/04/23 09:28:49;;;;;;;4.90;1.53;;;19.10;99.90;;;;;;5034989;28;20191;-48
2023/04/23 09:31:24;;;;;;;3.27;1.40;;;19.20;99.90;;;;;;5034734;28;20173;-48
2023/04/23 09:33:54;;;;;;;3.83;1.50;;;19.10;99.90;;;;;;5034930;28;20165;-49
2023/04/23 09:36:21;;;;;;;3.53;1.10;;;19.00;99.90;;;;;;5035713;28;20198;-50
2023/04/23 09:38:48;;;;;;;6.63;1.20;;;19.00;99.90;;;;;;5034489;28;20287;-49
2023/04/23 09:41:24;;;;;;;3.53;1.23;;;19.10;99.90;;;;;;5034843;28;20272;-50
2023/04/23 09:43:55;;;;;;;3.83;1.10;;;19.10;99.90;;;;;;5034794;28;20168;-49
2023/04/23 09:46:34;;;;;;;2.93;1.00;;;19.20;99.90;;;;;;5034746;28;20171;-48
2023/04/23 09:49:02;;;;;;;3.70;1.20;;;19.20;99.90;;;;;;5034349;28;20200;-48
2023/04/23 09:51:29;;;;;;;2.30;1.23;;;19.10;99.90;;;;;;5034181;28;20238;-49
2023/04/23 09:53:55;;;;;;;6.57;1.40;;;19.10;99.90;;;;;;5034581;28;20231;-49
2023/04/23 09:56:21;;;;;;;4.03;1.23;;;19.10;99.90;;;;;;5034266;28;20543;-49
2023/04/23 09:58:46;;;;;;;4.43;1.03;;;19.10;99.90;;;;;;5034378;28;20204;-49
2023/04/23 10:01:14;;;;;;;4.97;1.40;;;19.20;99.90;;;;;;5034412;28;20181;-48
2023/04/23 10:03:43;;;;;;;5.23;1.20;;;19.20;99.90;;;;;;5034016;28;20242;-50
2023/04/23 10:06:14;;;;;;;3.07;1.10;;;19.40;99.90;;;;;;5034352;28;20165;-49
2023/04/23 10:08:40;;;;;;;2.37;1.03;;;19.70;99.90;;;;;;5034019;28;20199;-50
2023/04/23 10:11:06;;;;;;;5.17;1.20;;;19.80;99.90;;;;;;5033913;28;20673;-48
2023/04/23 10:13:35;;;;;;;2.63;1.20;;;19.90;99.90;;;;;;5033850;28;20212;-49
2023/04/23 10:16:01;;;;;;;1.43;1.00;;;19.80;99.90;;;;;;5034185;28;20276;-48
2023/04/23 10:18:30;;;;;;;4.73;1.20;;;19.70;99.90;;;;;;5034054;28;20212;-48
2023/04/23 10:20:56;;;;;;;1.83;0.80;;;19.60;99.90;;;;;;5033773;28;20172;-50
2023/04/23 10:23:23;;;;;;;3.30;1.20;;;19.60;99.90;;;;;;5033765;28;20193;-48
2023/04/23 10:25:53;;;;;;;1.80;1.00;;;19.50;99.90;;;;;;5034350;28;20517;-49
2023/04/23 10:28:27;;;;;;;3.80;1.00;;;19.60;99.90;;;;;;5034029;28;20204;-49
2023/04/23 10:30:55;;;;;;;4.73;1.10;;;19.80;99.90;;;;;;5033684;28;20641;-48
2023/04/23 10:33:22;;;;;;;2.20;1.03;;;19.90;99.90;;;;;;5033524;28;20764;-50
2023/04/23 10:35:48;;;;;;;1.97;1.00;;;20.00;99.90;;;;;;5033514;28;20673;-50
2023/04/23 10:38:14;;;;;;;4.93;1.43;;;19.90;99.90;;;;;;5032872;28;20193;-49
2023/04/23 10:40:44;;;;;;;3.20;1.20;;;20.00;99.90;;;;;;5033785;28;20183;-49
2023/04/23 10:43:10;;;;;;;4.30;0.90;;;20.10;99.90;;;;;;5033671;28;20696;-49
2023/04/23 10:45:36;;;;;;;4.53;1.40;;;19.90;99.90;;;;;;5033403;28;20321;-49
2023/04/23 10:48:03;;;;;;;3.27;1.27;;;19.90;99.90;;;;;;5033370;28;20196;-48
2023/04/23 10:50:33;;;;;;;3.70;1.03;;;19.90;99.90;;;;;;5034034;28;20244;-49
2023/04/23 10:53:00;;;;;;;3.50;1.00;;;19.80;99.90;;;;;;5015701;28;20240;-49
2023/04/23 10:55:27;;;;;;;4.23;1.20;;;19.90;99.90;;;;;;5033393;28;20544;-49
2023/04/23 10:58:04;;;;;;;2.80;0.80;;;19.80;99.90;;;;;;5033297;28;20610;-46
2023/04/23 11:00:42;;;;;;;1.83;0.90;;;19.80;99.90;;;;;;5033896;28;20176;-50
2023/04/23 11:03:34;;;;;;;2.03;0.80;;;19.70;99.90;;;;;;5034105;28;20194;-48
2023/04/23 11:06:04;;;;;;;1.67;0.90;;;19.70;99.90;;;;;;5033231;28;20169;-48
2023/04/23 11:08:33;;;;;;;6.70;1.30;;;19.70;99.90;;;;;;5033421;28;20181;-48
2023/04/23 11:11:00;;;;;;;5.07;1.10;;;19.60;99.90;;;;;;5033140;28;20603;-49
2023/04/23 11:13:27;;;;;;;6.57;1.10;;;19.60;99.90;;;;;;5031857;28;20287;-48
2023/04/23 11:16:15;;;;;;;2.80;1.20;;;19.60;99.90;;;;;;5033341;28;20220;-48
2023/04/23 11:19:02;;;;;;;3.37;1.30;;;19.60;99.90;;;;;;5033304;28;20207;-49
2023/04/23 11:21:58;;;;;;;5.93;1.27;;;19.60;99.90;;;;;;5032966;28;20193;-46
2023/04/23 11:24:26;;;;;;;1.50;0.90;;;19.60;99.90;;;;;;5033296;28;20177;-49
2023/04/23 11:26:53;;;;;;;5.67;1.70;;;19.50;99.90;;;;;;5033085;28;20169;-46
2023/04/23 11:29:24;;;;;;;2.40;1.20;;;19.50;99.90;;;;;;5033298;28;20180;-48
2023/04/23 11:31:50;;;;;;;2.57;1.03;;;19.60;99.90;;;;;;5033230;28;20215;-48
2023/04/23 11:34:17;;;;;;;3.13;0.77;;;19.70;99.90;;;;;;5033019;28;20185;-49
2023/04/23 11:36:43;;;;;;;3.37;1.20;;;19.70;99.90;;;;;;5032945;28;20185;-48
2023/04/23 11:39:09;;;;;;;2.30;1.17;;;19.70;99.90;;;;;;5032857;28;20259;-48
2023/04/23 11:41:35;;;;;;;3.43;0.93;;;19.80;99.90;;;;;;5032772;28;20188;-49
2023/04/23 11:44:01;;;;;;;1.70;0.73;;;19.80;99.90;;;;;;5033125;28;20197;-49
2023/04/23 11:46:26;;;;;;;5.57;1.00;;;19.90;99.90;;;;;;5033101;28;20512;-48
2023/04/23 11:48:52;;;;;;;2.73;0.77;;;19.90;99.90;;;;;;5033557;28;20193;-49
2023/04/23 11:51:24;;;;;;;2.77;1.00;;;19.80;99.90;;;;;;5036760;28;20208;-48
2023/04/23 11:53:50;;;;;;;3.77;1.37;;;19.90;99.90;;;;;;5036890;28;20539;-49
2023/04/23 11:56:16;;;;;;;2.90;1.00;;;19.90;99.90;;;;;;5036502;28;20181;-49
2023/04/23 11:58:41;;;;;;;3.57;0.97;;;20.00;99.90;;;;;;5036723;28;20200;-48
2023/04/23 12:01:07;;;;;;;4.90;1.20;;;20.10;99.90;;;;;;5036575;28;20219;-49
2023/04/23 12:03:33;;;;;;;3.47;0.90;;;20.20;99.90;;;;;;5036304;28;20185;-49
2023/04/23 12:05:58;;;;;;;4.70;1.20;;;20.40;99.90;;;;;;5036627;28;20238;-50
2023/04/23 12:08:24;;;;;;;4.20;0.93;;;20.50;99.90;;;;;;5036321;28;20212;-49
2023/04/23 12:10:58;;;;;;;1.77;0.87;;;20.60;99.90;;;;;;5036233;28;20184;-48
2023/04/23 12:13:26;;;;;;;3.47;1.00;;;20.60;99.90;;;;;;5036225;28;20319;-49
2023/04/23 12:15:58;;;;;;;3.27;0.90;;;20.60;99.90;;;;;;5036122;28;20684;-47
2023/04/23 12:18:52;;;;;;;6.43;1.03;;;20.60;99.90;;;;;;5036326;28;20655;-49
2023/04/23 12:21:18;;;;;;;2.37;1.20;;;20.50;99.90;;;;;;5019103;28;20185;-48
2023/04/23 12:23:44;;;;;;;5.00;1.27;;;20.50;99.90;;;;;;5036250;28;20238;-48
2023/04/23 12:26:11;;;;;;;2.40;1.17;;;20.60;99.90;;;;;;5035946;28;20184;-48
2023/04/23 12:28:54;;;;;;;1.73;0.87;;;20.80;99.90;;;;;;5036156;28;20657;-48
2023/04/23 12:31:21;;;;;;;2.33;1.00;;;21.00;99.90;;;;;;5036136;28;20275;-50
2023/04/23 12:33:57;;;;;;;3.97;1.00;;;21.10;99.90;;;;;;5035831;28;20177;-48
2023/04/23 12:36:28;;;;;;;2.93;0.80;;;21.10;99.90;;;;;;5036063;28;20172;-48
2023/04/23 12:38:53;;;;;;;3.33;1.20;;;21.20;99.90;;;;;;5036050;28;20201;-48
2023/04/23 12:41:19;;;;;;;1.10;0.70;;;21.20;99.90;;;;;;5035929;28;20184;-49
2023/04/23 12:43:47;;;;;;;6.00;1.63;;;21.20;99.90;;;;;;5035702;28;20657;-48